TimeEST,TemperatureF,Dew PointF,Humidity,Sea Level PressureIn,VisibilityMPH,Wind Direction,Wind SpeedMPH,Gust SpeedMPH,PrecipitationIn,Events,Conditions,WindDirDegrees,DateUTC
12:15 AM,30.2,29.1,96,30.06,7.0,Calm,Calm,-,N/A,,Clear,0,2013-12-02 05:15:00
12:35 AM,29.5,28.9,98,30.05,7.0,Calm,Calm,-,N/A,,Clear,0,2013-12-02 05:35:00
12:55 AM,29.5,29.3,99,30.04,7.0,Calm,Calm,-,N/A,,Clear,0,2013-12-02 05:55:00
1:15 AM,28.4,27.7,97,30.04,7.0,Calm,Calm,-,N/A,,Clear,0,2013-12-02 06:15:00
1:35 AM,28.8,28.4,99,30.03,7.0,Calm,Calm,-,N/A,,Clear,0,2013-12-02 06:35:00
1:55 AM,28.4,28.2,99,30.02,7.0,Calm,Calm,-,N/A,,Clear,0,2013-12-02 06:55:00
2:15 AM,29.7,29.3,99,30.02,7.0,Calm,Calm,-,N/A,,Clear,0,2013-12-02 07:15:00
2:35 AM,28.0,27.5,98,30.02,7.0,Calm,Calm,-,N/A,,Clear,0,2013-12-02 07:35:00
2:55 AM,27.5,27.3,99,30.01,7.0,Calm,Calm,-,N/A,,Clear,0,2013-12-02 07:55:00
3:15 AM,29.5,29.3,99,30.01,10.0,WNW,3.5,-,N/A,,Clear,290,2013-12-02 08:15:00
3:35 AM,28.0,27.5,98,30.00,7.0,Calm,Calm,-,N/A,,Clear,0,2013-12-02 08:35:00
3:55 AM,28.9,28.8,99,30.00,10.0,West,3.5,-,N/A,,Clear,280,2013-12-02 08:55:00
4:15 AM,27.5,27.1,99,29.99,10.0,Calm,Calm,-,N/A,,Scattered Clouds,0,2013-12-02 09:15:00
4:35 AM,27.3,26.8,98,29.99,10.0,Calm,Calm,-,N/A,,Scattered Clouds,0,2013-12-02 09:35:00
4:55 AM,26.8,26.2,98,29.99,10.0,Calm,Calm,-,N/A,,Scattered Clouds,0,2013-12-02 09:55:00
5:15 AM,27.1,26.4,97,29.99,10.0,Calm,Calm,-,N/A,,Clear,0,2013-12-02 10:15:00
5:35 AM,26.6,26.1,98,29.98,10.0,Calm,Calm,-,N/A,,Clear,0,2013-12-02 10:35:00
5:55 AM,26.6,26.2,99,29.97,10.0,Calm,Calm,-,N/A,,Clear,0,2013-12-02 10:55:00
6:15 AM,28.9,28.4,98,29.99,10.0,Calm,Calm,-,N/A,,Mostly Cloudy,0,2013-12-02 11:15:00
6:35 AM,28.8,28.4,99,29.99,10.0,Calm,Calm,-,N/A,,Overcast,0,2013-12-02 11:35:00
6:55 AM,29.3,28.9,99,29.98,10.0,Calm,Calm,-,N/A,,Overcast,0,2013-12-02 11:55:00
7:15 AM,30.0,29.5,98,29.98,10.0,Calm,Calm,-,N/A,,Overcast,0,2013-12-02 12:15:00
7:35 AM,29.7,29.5,99,29.97,10.0,NW,3.5,-,N/A,,Overcast,320,2013-12-02 12:35:00
7:55 AM,31.6,31.1,98,29.99,10.0,West,3.5,-,N/A,,Overcast,270,2013-12-02 12:55:00
8:15 AM,34.0,33.1,96,29.99,10.0,Calm,Calm,-,N/A,,Mostly Cloudy,0,2013-12-02 13:15:00
8:35 AM,34.9,33.1,93,29.99,10.0,Calm,Calm,-,N/A,,Mostly Cloudy,0,2013-12-02 13:35:00
8:55 AM,37.8,33.3,84,29.98,10.0,NW,3.5,-,N/A,,Overcast,320,2013-12-02 13:55:00
9:15 AM,39.0,33.4,80,29.97,10.0,Calm,Calm,-,N/A,,Overcast,0,2013-12-02 14:15:00
9:35 AM,40.8,33.8,76,29.97,10.0,Calm,Calm,-,N/A,,Overcast,0,2013-12-02 14:35:00
9:55 AM,42.8,34.5,73,29.97,10.0,NW,3.5,-,N/A,,Overcast,310,2013-12-02 14:55:00
10:15 AM,41.7,34.9,77,29.97,10.0,Calm,Calm,-,N/A,,Overcast,0,2013-12-02 15:15:00
10:35 AM,42.4,34.0,72,29.97,10.0,Calm,Calm,-,N/A,,Overcast,0,2013-12-02 15:35:00
10:55 AM,43.7,34.5,70,29.96,10.0,Calm,Calm,-,N/A,Rain,Light Rain,0,2013-12-02 15:55:00
11:15 AM,44.4,35.1,70,29.96,10.0,Calm,Calm,-,N/A,,Overcast,0,2013-12-02 16:15:00
11:35 AM,46.6,34.9,64,29.95,10.0,Calm,Calm,-,N/A,,Overcast,0,2013-12-02 16:35:00
11:55 AM,48.4,34.9,60,29.94,10.0,Calm,Calm,-,N/A,,Overcast,0,2013-12-02 16:55:00
12:15 PM,51.4,34.3,52,29.93,10.0,Calm,Calm,-,N/A,,Mostly Cloudy,0,2013-12-02 17:15:00
12:35 PM,52.5,33.1,48,29.92,10.0,Calm,Calm,-,N/A,,Mostly Cloudy,0,2013-12-02 17:35:00
12:55 PM,54.5,33.3,45,29.91,10.0,SW,3.5,-,N/A,,Overcast,220,2013-12-02 17:55:00
1:15 PM,56.3,31.8,39,29.90,10.0,SE,3.5,-,N/A,,Overcast,130,2013-12-02 18:15:00
1:35 PM,56.1,32.0,40,29.88,10.0,Calm,Calm,-,N/A,,Scattered Clouds,0,2013-12-02 18:35:00
1:55 PM,56.8,32.0,39,29.88,10.0,Calm,Calm,-,N/A,,Scattered Clouds,0,2013-12-02 18:55:00
2:15 PM,57.0,32.0,39,29.87,10.0,SE,3.5,-,N/A,,Scattered Clouds,140,2013-12-02 19:15:00
2:35 PM,57.7,32.7,39,29.87,10.0,Calm,Calm,-,N/A,,Clear,0,2013-12-02 19:35:00
2:55 PM,56.7,32.9,41,29.86,10.0,Calm,Calm,-,N/A,,Mostly Cloudy,0,2013-12-02 19:55:00
3:15 PM,56.8,33.4,41,29.86,10.0,Calm,Calm,-,N/A,,Overcast,0,2013-12-02 20:15:00
3:35 PM,56.7,34.0,42,29.87,10.0,Calm,Calm,-,N/A,,Overcast,0,2013-12-02 20:35:00
3:55 PM,55.4,34.9,46,29.87,10.0,Calm,Calm,-,N/A,,Overcast,0,2013-12-02 20:55:00
4:15 PM,54.1,35.4,49,29.87,10.0,Calm,Calm,-,N/A,,Overcast,0,2013-12-02 21:15:00
4:35 PM,53.6,35.8,51,29.86,10.0,ENE,3.5,-,N/A,,Overcast,60,2013-12-02 21:35:00
4:55 PM,53.1,35.1,50,29.86,10.0,Calm,Calm,-,N/A,,Overcast,0,2013-12-02 21:55:00
5:15 PM,52.5,35.1,51,29.87,10.0,Calm,Calm,-,N/A,,Overcast,0,2013-12-02 22:15:00
5:35 PM,49.8,37.9,64,29.88,10.0,Calm,Calm,-,N/A,,Overcast,0,2013-12-02 22:35:00
5:55 PM,50.7,35.8,57,29.88,10.0,Calm,Calm,-,N/A,,Overcast,0,2013-12-02 22:55:00
6:15 PM,50.9,34.9,54,29.88,10.0,Calm,Calm,-,N/A,,Overcast,0,2013-12-02 23:15:00
6:35 PM,49.6,35.8,59,29.88,10.0,Calm,Calm,-,N/A,,Overcast,0,2013-12-02 23:35:00
6:55 PM,46.6,37.4,70,29.88,10.0,Calm,Calm,-,N/A,,Mostly Cloudy,0,2013-12-02 23:55:00
7:15 PM,43.3,37.8,81,29.89,10.0,Calm,Calm,-,N/A,,Clear,0,2013-12-03 00:15:00
7:35 PM,42.1,37.0,82,29.90,10.0,Calm,Calm,-,N/A,,Scattered Clouds,0,2013-12-03 00:35:00
7:55 PM,41.4,36.3,82,29.90,10.0,Calm,Calm,-,N/A,,Mostly Cloudy,0,2013-12-03 00:55:00
8:15 PM,41.2,36.1,82,29.90,10.0,Calm,Calm,-,N/A,,Mostly Cloudy,0,2013-12-03 01:15:00
8:35 PM,41.5,36.3,82,29.91,10.0,Calm,Calm,-,N/A,,Mostly Cloudy,0,2013-12-03 01:35:00
8:55 PM,41.0,37.0,86,29.90,10.0,East,3.5,-,N/A,,Mostly Cloudy,100,2013-12-03 01:55:00
9:15 PM,42.1,36.3,80,29.90,10.0,East,3.5,-,N/A,,Scattered Clouds,90,2013-12-03 02:15:00
9:35 PM,43.7,37.2,78,29.90,10.0,Calm,Calm,-,N/A,,Overcast,0,2013-12-03 02:35:00
9:55 PM,43.3,36.9,78,29.91,10.0,North,3.5,-,N/A,,Overcast,350,2013-12-03 02:55:00
10:15 PM,43.9,36.3,75,29.91,10.0,North,3.5,-,N/A,,Overcast,350,2013-12-03 03:15:00
10:35 PM,44.1,36.5,75,29.92,10.0,Calm,Calm,-,N/A,,Overcast,0,2013-12-03 03:35:00
10:55 PM,42.6,37.4,82,29.92,10.0,Calm,Calm,-,N/A,,Overcast,0,2013-12-03 03:55:00
11:15 PM,43.0,37.2,80,29.92,10.0,Calm,Calm,-,N/A,,Overcast,0,2013-12-03 04:15:00
11:35 PM,41.9,37.8,85,29.92,10.0,Calm,Calm,-,N/A,,Overcast,0,2013-12-03 04:35:00
11:55 PM,41.4,37.6,86,29.91,10.0,Calm,Calm,-,N/A,,Overcast,0,2013-12-03 04:55:00